createdAt,value
2023-05-16T00:01:08.360Z,32.23
2023-05-16T00:03:38.083Z,32.37
2023-05-16T00:06:07.740Z,32.80
2023-05-16T00:08:36.298Z,30.50
2023-05-16T00:11:04.927Z,30.27
2023-05-16T00:13:33.241Z,30.60
2023-05-16T00:16:02.691Z,29.67
2023-05-16T00:18:30.836Z,28.90
2023-05-16T00:20:58.826Z,28.10
2023-05-16T00:23:28.029Z,26.57
2023-05-16T00:25:56.199Z,25.10
2023-05-16T00:28:24.141Z,25.63
2023-05-16T00:30:51.995Z,25.47
2023-05-16T00:33:20.267Z,24.73
2023-05-16T00:35:48.364Z,25.17
2023-05-16T00:38:16.157Z,24.13
2023-05-16T00:40:45.416Z,24.83
2023-05-16T00:43:13.574Z,24.93
2023-05-16T00:45:41.371Z,23.43
2023-05-16T00:48:09.585Z,23.33
2023-05-16T00:50:38.748Z,24.30
2023-05-16T00:53:06.645Z,23.00
2023-05-16T00:55:34.458Z,24.47
2023-05-16T00:58:03.787Z,23.87
2023-05-16T01:00:31.575Z,23.43
2023-05-16T01:02:59.495Z,24.10
2023-05-16T01:05:27.605Z,24.40
2023-05-16T01:07:55.613Z,24.87
2023-05-16T01:10:23.504Z,24.80
2023-05-16T01:12:58.085Z,25.37
2023-05-16T01:15:30.078Z,25.13
2023-05-16T01:18:02.553Z,24.33
2023-05-16T01:20:36.786Z,24.00
2023-05-16T01:23:19.570Z,23.13
2023-05-16T01:25:58.343Z,22.50
2023-05-16T01:28:28.632Z,20.50
2023-05-16T01:30:56.401Z,20.50
2023-05-16T01:33:24.196Z,20.60
2023-05-16T01:35:57.048Z,19.03
2023-05-16T01:38:27.628Z,19.63
2023-05-16T01:40:59.629Z,19.50
2023-05-16T01:43:32.375Z,19.37
2023-05-16T01:46:05.182Z,19.47
2023-05-16T01:48:37.441Z,20.97
2023-05-16T01:51:05.871Z,20.57
2023-05-16T01:53:38.757Z,19.97
2023-05-16T01:56:10.820Z,19.37
2023-05-16T01:58:40.913Z,20.10
2023-05-16T02:01:09.143Z,21.50
2023-05-16T02:03:37.022Z,20.60
2023-05-16T02:06:05.043Z,21.47
2023-05-16T02:08:32.888Z,21.87
2023-05-16T02:11:00.780Z,20.77
2023-05-16T02:13:28.528Z,23.50
2023-05-16T02:15:57.696Z,23.13
2023-05-16T02:18:26.067Z,22.87
2023-05-16T02:20:54.020Z,24.23
2023-05-16T02:23:21.775Z,25.23
2023-05-16T02:25:50.359Z,22.10
2023-05-16T02:28:18.084Z,24.60
2023-05-16T02:30:45.883Z,23.77
2023-05-16T02:33:15.001Z,25.13
2023-05-16T02:35:42.771Z,24.13
2023-05-16T02:38:10.553Z,24.47
2023-05-16T02:40:38.259Z,24.20
2023-05-16T02:43:06.036Z,24.37
2023-05-16T02:45:33.834Z,24.10
2023-05-16T02:48:01.637Z,22.43
2023-05-16T02:50:30.827Z,24.47
2023-05-16T02:52:59.834Z,23.53
2023-05-16T02:55:27.693Z,21.33
2023-05-16T02:57:55.550Z,21.93
2023-05-16T03:00:23.672Z,23.27
2023-05-16T03:02:51.432Z,23.00
2023-05-16T03:05:19.644Z,21.10
2023-05-16T03:07:48.724Z,21.10
2023-05-16T03:10:16.484Z,19.23
2023-05-16T03:12:44.225Z,19.13
2023-05-16T03:15:12.173Z,18.17
2023-05-16T03:17:39.946Z,18.73
2023-05-16T03:20:09.565Z,17.13
2023-05-16T03:22:37.318Z,15.63
2023-05-16T03:25:07.959Z,15.00
2023-05-16T03:27:36.307Z,13.03
2023-05-16T03:30:04.066Z,12.97
2023-05-16T03:32:31.867Z,11.90
2023-05-16T03:34:59.703Z,10.13
2023-05-16T03:37:27.540Z,10.23
2023-05-16T03:39:55.308Z,9.37
2023-05-16T03:42:24.480Z,8.83
2023-05-16T03:44:52.271Z,7.70
2023-05-16T03:47:20.047Z,8.20
2023-05-16T03:49:47.813Z,7.57
2023-05-16T03:52:15.582Z,6.60
2023-05-16T03:54:43.359Z,6.17
2023-05-16T03:57:11.106Z,6.27
2023-05-16T03:59:40.253Z,5.70
2023-05-16T04:02:09.141Z,5.27
2023-05-16T04:04:36.959Z,4.30
2023-05-16T04:07:04.976Z,4.30
2023-05-16T04:09:32.824Z,3.80
2023-05-16T04:12:02.001Z,3.30
2023-05-16T04:14:29.869Z,3.30
2023-05-16T04:16:59.014Z,3.53
2023-05-16T04:19:26.866Z,3.23
2023-05-16T04:21:54.606Z,3.20
2023-05-16T04:24:26.371Z,2.73
2023-05-16T04:26:54.189Z,2.90
2023-05-16T04:29:22.401Z,2.83
2023-05-16T04:31:50.325Z,2.37
2023-05-16T04:34:19.649Z,2.37
2023-05-16T04:36:47.402Z,2.40
2023-05-16T04:39:15.162Z,2.40
2023-05-16T04:41:42.931Z,2.57
2023-05-16T04:44:11.220Z,2.47
2023-05-16T04:46:39.345Z,2.30
2023-05-16T04:49:07.533Z,2.33
2023-05-16T04:51:36.756Z,2.33
2023-05-16T04:54:04.526Z,1.93
2023-05-16T04:56:32.292Z,2.30
2023-05-16T04:59:00.052Z,1.93
2023-05-16T05:01:27.924Z,2.00
2023-05-16T05:03:55.678Z,2.33
2023-05-16T05:06:23.504Z,2.27
2023-05-16T05:08:52.581Z,2.33
2023-05-16T05:11:21.108Z,2.30
2023-05-16T05:13:50.263Z,2.30
2023-05-16T05:16:19.761Z,2.00
2023-05-16T05:18:47.673Z,2.20
2023-05-16T05:21:15.666Z,2.30
2023-05-16T05:23:43.451Z,2.20
2023-05-16T05:26:12.676Z,2.27
2023-05-16T05:28:42.179Z,2.20
2023-05-16T05:31:13.404Z,2.70
2023-05-16T05:33:42.353Z,2.30
2023-05-16T05:36:10.838Z,2.30
2023-05-16T05:38:38.590Z,2.40
2023-05-16T05:41:06.787Z,2.50
2023-05-16T05:43:35.883Z,2.40
2023-05-16T05:46:03.700Z,2.30
2023-05-16T05:48:32.519Z,2.40
2023-05-16T05:51:00.560Z,2.60
2023-05-16T05:53:28.392Z,2.50
2023-05-16T05:55:56.166Z,2.80
2023-05-16T05:58:23.947Z,2.70
2023-05-16T06:00:53.062Z,2.33
2023-05-16T06:03:21.320Z,2.37
2023-05-16T06:05:49.215Z,2.50
2023-05-16T06:08:17.260Z,2.27
2023-05-16T06:10:45.097Z,20.70
2023-05-16T06:13:12.836Z,2.10
2023-05-16T06:15:40.634Z,2.03
2023-05-16T06:18:09.868Z,2.20
2023-05-16T06:20:37.687Z,1.67
2023-05-16T06:23:05.436Z,2.20
2023-05-16T06:25:33.339Z,1.80
2023-05-16T06:28:01.087Z,2.10
2023-05-16T06:30:28.899Z,2.20
2023-05-16T06:32:56.783Z,1.93
2023-05-16T06:35:26.449Z,1.80
2023-05-16T06:37:54.426Z,1.90
2023-05-16T06:40:22.187Z,1.77
2023-05-16T06:42:49.983Z,1.67
2023-05-16T06:45:17.865Z,1.53
2023-05-16T06:47:45.680Z,1.50
2023-05-16T06:50:13.913Z,1.40
2023-05-16T06:52:43.170Z,1.50
2023-05-16T06:55:11.563Z,1.47
2023-05-16T06:57:39.432Z,1.40
2023-05-16T07:00:09.417Z,1.50
2023-05-16T07:02:37.367Z,1.53
2023-05-16T07:05:05.704Z,6.80
2023-05-16T07:07:33.614Z,2.77
2023-05-16T07:10:02.988Z,1.33
2023-05-16T07:12:31.364Z,1.30
2023-05-16T07:14:59.693Z,1.30
2023-05-16T07:17:27.782Z,1.30
2023-05-16T07:19:55.557Z,1.20
2023-05-16T07:22:23.426Z,1.20
2023-05-16T07:24:53.272Z,1.30
2023-05-16T07:27:23.704Z,1.13
2023-05-16T07:29:51.569Z,1.40
2023-05-16T07:32:19.456Z,1.30
2023-05-16T07:34:47.267Z,1.20
2023-05-16T07:37:16.213Z,1.10
2023-05-16T07:39:44.019Z,1.20
2023-05-16T07:42:11.940Z,1.23
2023-05-16T07:44:41.116Z,1.20
2023-05-16T07:47:08.939Z,1.00
2023-05-16T07:49:36.761Z,1.20
2023-05-16T07:52:04.831Z,1.10
2023-05-16T07:54:33.520Z,1.20
2023-05-16T07:57:01.403Z,1.20
2023-05-16T07:59:29.491Z,1.30
2023-05-16T08:01:59.025Z,1.40
2023-05-16T08:04:26.857Z,1.40
2023-05-16T08:06:54.637Z,1.37
2023-05-16T08:09:22.584Z,1.30
2023-05-16T08:11:50.402Z,1.37
2023-05-16T08:14:18.854Z,1.50
2023-05-16T08:16:46.708Z,1.67
2023-05-16T08:19:15.962Z,1.40
2023-05-16T08:21:43.815Z,1.57
2023-05-16T08:24:12.232Z,1.70
2023-05-16T08:26:40.219Z,1.70
2023-05-16T08:29:08.178Z,1.60
2023-05-16T08:31:36.104Z,1.60
2023-05-16T08:34:06.474Z,1.70
2023-05-16T08:36:36.310Z,1.80
2023-05-16T08:39:04.777Z,1.80
2023-05-16T08:41:32.735Z,1.90
2023-05-16T08:44:00.658Z,1.97
2023-05-16T08:46:30.260Z,1.90
2023-05-16T08:49:00.423Z,1.90
2023-05-16T08:51:30.179Z,2.50
2023-05-16T08:54:02.263Z,2.13
2023-05-16T08:56:30.272Z,2.10
2023-05-16T08:58:58.651Z,2.30
2023-05-16T09:01:26.624Z,2.10
2023-05-16T09:03:54.588Z,2.70
2023-05-16T09:06:22.473Z,2.60
2023-05-16T09:08:50.711Z,2.40
2023-05-16T09:11:20.090Z,2.60
2023-05-16T09:13:48.178Z,2.80
2023-05-16T09:16:17.432Z,3.10
2023-05-16T09:18:47.091Z,2.60
2023-05-16T09:21:15.866Z,2.80
2023-05-16T09:23:44.069Z,2.63
2023-05-16T09:26:12.238Z,2.77
2023-05-16T09:28:41.484Z,2.70
2023-05-16T09:31:22.369Z,2.60
2023-05-16T09:33:50.999Z,2.43
2023-05-16T09:36:18.897Z,2.47
2023-05-16T09:38:46.744Z,2.60
2023-05-16T09:41:14.808Z,3.03
2023-05-16T09:43:45.211Z,2.53
2023-05-16T09:46:16.689Z,2.50
2023-05-16T09:48:46.415Z,2.30
2023-05-16T09:51:14.985Z,2.50
2023-05-16T09:53:43.148Z,2.77
2023-05-16T09:56:12.717Z,2.80
2023-05-16T09:58:41.792Z,2.60
2023-05-16T10:01:11.958Z,2.60
2023-05-16T10:03:41.221Z,2.27
2023-05-16T10:06:09.517Z,2.73
2023-05-16T10:08:38.307Z,2.40
2023-05-16T10:11:07.185Z,2.47
2023-05-16T10:13:36.875Z,2.43
2023-05-16T10:16:08.822Z,2.70
2023-05-16T10:18:39.961Z,2.60
2023-05-16T10:21:11.198Z,2.30
2023-05-16T10:23:42.543Z,2.53
2023-05-16T10:26:10.895Z,2.60
2023-05-16T10:28:39.065Z,2.50
2023-05-16T10:31:07.258Z,2.47
2023-05-16T10:33:38.809Z,2.67
2023-05-16T10:36:07.281Z,2.30
2023-05-16T10:38:35.655Z,2.77
2023-05-16T10:41:03.702Z,2.47
2023-05-16T10:43:33.429Z,2.37
2023-05-16T10:46:04.827Z,2.67
2023-05-16T10:48:33.669Z,2.30
2023-05-16T10:51:04.173Z,2.27
2023-05-16T10:53:34.015Z,2.23
2023-05-16T10:56:12.227Z,2.07
2023-05-16T10:58:48.811Z,1.90
2023-05-16T11:01:24.517Z,2.00
2023-05-16T11:04:10.315Z,2.40
2023-05-16T11:06:53.454Z,2.13
2023-05-16T11:09:28.522Z,2.10
2023-05-16T11:11:58.652Z,2.10
2023-05-16T11:14:28.916Z,2.17
2023-05-16T11:17:02.258Z,2.63
2023-05-16T11:19:32.631Z,2.13
2023-05-16T11:22:24.250Z,2.10
2023-05-16T11:24:54.508Z,2.10
2023-05-16T11:27:24.478Z,1.60
2023-05-16T11:29:52.571Z,1.80
2023-05-16T11:32:22.852Z,1.90
2023-05-16T11:34:51.247Z,1.60
2023-05-16T11:37:21.776Z,1.57
2023-05-16T11:39:49.945Z,1.60
2023-05-16T11:42:18.978Z,1.70
2023-05-16T11:44:46.881Z,1.80
2023-05-16T11:47:14.723Z,1.70
2023-05-16T11:49:43.313Z,1.90
2023-05-16T11:52:11.410Z,1.90
2023-05-16T11:54:42.407Z,1.50
2023-05-16T11:57:10.459Z,1.57
2023-05-16T11:59:38.453Z,1.70
2023-05-16T12:02:07.048Z,1.77
2023-05-16T12:04:35.213Z,1.60
2023-05-16T12:07:03.987Z,1.50
2023-05-16T12:09:31.836Z,1.57
2023-05-16T12:12:01.091Z,1.90
2023-05-16T12:14:28.978Z,1.60
2023-05-16T12:16:57.032Z,1.80
2023-05-16T12:19:25.348Z,1.53
2023-05-16T12:21:56.131Z,1.93
2023-05-16T12:24:30.966Z,1.70
2023-05-16T12:27:00.133Z,1.80
2023-05-16T12:29:27.961Z,1.80
2023-05-16T12:31:55.995Z,1.80
2023-05-16T12:34:24.365Z,2.03
2023-05-16T12:36:53.529Z,2.07
2023-05-16T12:39:21.616Z,1.70
2023-05-16T12:41:49.462Z,1.60
2023-05-16T12:44:19.885Z,1.90
2023-05-16T12:46:49.767Z,1.60
2023-05-16T12:49:21.038Z,1.63
2023-05-16T12:51:52.658Z,1.53
2023-05-16T12:54:22.867Z,1.90
2023-05-16T12:56:52.115Z,1.50
2023-05-16T12:59:21.338Z,1.50
2023-05-16T13:01:49.218Z,1.60
2023-05-16T13:04:20.215Z,1.87
2023-05-16T13:06:58.588Z,1.97
2023-05-16T13:09:32.112Z,1.60
2023-05-16T13:12:01.026Z,1.70
2023-05-16T13:14:30.243Z,1.90
2023-05-16T13:16:58.053Z,1.80
2023-05-16T13:19:26.260Z,2.03
2023-05-16T13:21:54.244Z,1.43
2023-05-16T13:24:22.050Z,1.90
2023-05-16T13:26:49.844Z,1.80
2023-05-16T13:29:17.618Z,1.70
2023-05-16T13:31:46.929Z,1.60
2023-05-16T13:34:14.865Z,2.07
2023-05-16T13:36:53.687Z,2.00
2023-05-16T13:39:23.024Z,1.77
2023-05-16T13:41:51.571Z,1.80
2023-05-16T13:44:19.667Z,1.70
2023-05-16T13:46:48.928Z,1.43
2023-05-16T13:49:16.872Z,1.50
2023-05-16T13:51:44.614Z,1.63
2023-05-16T13:54:12.459Z,1.70
2023-05-16T13:56:40.462Z,1.93
2023-05-16T13:59:09.632Z,1.53
2023-05-16T14:01:38.672Z,1.67
2023-05-16T14:04:07.987Z,1.50
2023-05-16T14:06:35.867Z,1.70
2023-05-16T14:09:03.976Z,1.70
2023-05-16T14:11:31.796Z,1.70
2023-05-16T14:13:59.610Z,1.87
2023-05-16T14:16:27.696Z,1.80
2023-05-16T14:18:55.943Z,1.90
2023-05-16T14:21:25.153Z,1.90
2023-05-16T14:23:52.953Z,1.60
2023-05-16T14:26:24.673Z,1.70
2023-05-16T14:28:52.547Z,1.97
2023-05-16T14:31:20.641Z,1.77
2023-05-16T14:33:48.577Z,1.57
2023-05-16T14:36:16.333Z,1.50
2023-05-16T14:38:45.494Z,1.80
2023-05-16T14:41:13.218Z,1.70
2023-05-16T14:43:41.003Z,1.63
2023-05-16T14:46:08.850Z,1.80
2023-05-16T14:48:36.640Z,1.40
2023-05-16T14:51:04.889Z,1.50
2023-05-16T14:53:32.710Z,1.60
2023-05-16T14:56:02.869Z,1.53
2023-05-16T14:58:30.692Z,2.10
2023-05-16T15:00:58.638Z,1.70
2023-05-16T15:03:26.528Z,1.60
2023-05-16T15:05:54.768Z,3.50
2023-05-16T15:08:22.832Z,1.60
2023-05-16T15:10:50.598Z,1.27
2023-05-16T15:13:19.720Z,1.60
2023-05-16T15:15:47.527Z,1.83
2023-05-16T15:18:15.343Z,1.60
2023-05-16T15:20:43.104Z,1.40
2023-05-16T15:23:12.026Z,1.63
2023-05-16T15:25:39.802Z,1.43
2023-05-16T15:28:07.618Z,1.60
2023-05-16T15:30:36.840Z,1.63
2023-05-16T15:33:04.678Z,1.57
2023-05-16T15:35:32.592Z,1.30
2023-05-16T15:38:00.384Z,1.77
2023-05-16T15:40:28.192Z,1.40
2023-05-16T15:42:56.235Z,1.50
2023-05-16T15:45:24.045Z,1.40
2023-05-16T15:47:53.211Z,1.30
2023-05-16T15:50:20.990Z,1.43
2023-05-16T15:52:49.077Z,1.33
2023-05-16T15:55:16.919Z,1.33
2023-05-16T15:57:44.800Z,2.00
2023-05-16T16:00:13.661Z,1.53
2023-05-16T16:02:43.502Z,1.83
2023-05-16T16:05:12.904Z,1.47
2023-05-16T16:07:40.675Z,1.47
2023-05-16T16:10:09.797Z,1.53
2023-05-16T16:12:37.588Z,1.70
2023-05-16T16:15:06.610Z,1.20
2023-05-16T16:17:34.484Z,1.60
2023-05-16T16:20:02.290Z,1.33
2023-05-16T16:22:31.491Z,1.73
2023-05-16T16:25:00.568Z,1.30
2023-05-16T16:27:28.399Z,1.50
2023-05-16T16:29:56.350Z,1.40
2023-05-16T16:32:24.200Z,1.97
2023-05-16T16:34:52.021Z,1.50
2023-05-16T16:37:20.741Z,1.60
2023-05-16T16:39:49.879Z,1.47
2023-05-16T16:42:17.642Z,1.50
2023-05-16T16:44:45.531Z,1.47
2023-05-16T16:47:13.354Z,1.30
2023-05-16T16:49:41.700Z,1.13
2023-05-16T16:52:09.626Z,1.20
2023-05-16T16:54:37.395Z,1.80
2023-05-16T16:57:07.015Z,1.30
2023-05-16T16:59:35.968Z,1.60
2023-05-16T17:02:03.777Z,1.50
2023-05-16T17:04:31.775Z,1.17
2023-05-16T17:06:59.526Z,1.87
2023-05-16T17:09:27.285Z,1.77
2023-05-16T17:11:55.021Z,1.47
2023-05-16T17:14:24.244Z,1.47
2023-05-16T17:16:52.068Z,1.60
2023-05-16T17:19:19.910Z,1.90
2023-05-16T17:21:47.788Z,1.60
2023-05-16T17:24:15.552Z,1.73
2023-05-16T17:26:43.429Z,1.67
2023-05-16T17:29:11.759Z,1.57
2023-05-16T17:31:41.032Z,1.43
2023-05-16T17:34:08.822Z,1.90
2023-05-16T17:36:38.042Z,1.03
2023-05-16T17:39:08.392Z,1.40
2023-05-16T17:41:36.302Z,1.20
2023-05-16T17:44:06.693Z,1.40
2023-05-16T17:46:34.605Z,1.50
2023-05-16T17:49:04.409Z,1.30
2023-05-16T17:51:46.473Z,1.40
2023-05-16T17:54:14.280Z,1.63
2023-05-16T17:56:42.796Z,1.40
2023-05-16T17:59:10.860Z,1.33
2023-05-16T18:01:39.695Z,1.23
2023-05-16T18:04:09.346Z,1.67
2023-05-16T18:06:38.677Z,2.00
2023-05-16T18:09:09.652Z,1.40
2023-05-16T18:11:38.570Z,1.50
2023-05-16T18:14:06.544Z,1.40
2023-05-16T18:16:34.288Z,1.33
2023-05-16T18:19:02.343Z,1.60
2023-05-16T18:21:31.560Z,1.60
2023-05-16T18:23:59.587Z,1.30
2023-05-16T18:26:28.902Z,1.30
2023-05-16T18:28:56.761Z,1.30
2023-05-16T18:31:24.575Z,1.50
2023-05-16T18:33:52.448Z,1.50
2023-05-16T18:36:20.218Z,1.30
2023-05-16T18:38:49.410Z,1.50
2023-05-16T18:41:17.182Z,1.77
2023-05-16T18:43:45.072Z,1.57
2023-05-16T18:46:12.842Z,1.60
2023-05-16T18:48:40.595Z,1.53
2023-05-16T18:51:08.455Z,1.60
2023-05-16T18:53:36.555Z,1.43
2023-05-16T18:56:05.910Z,1.47
2023-05-16T18:58:33.693Z,1.30
2023-05-16T19:01:01.770Z,1.50
2023-05-16T19:03:29.604Z,1.73
2023-05-16T19:05:57.691Z,2.60
2023-05-16T19:08:29.204Z,1.80
2023-05-16T19:11:01.803Z,1.63
2023-05-16T19:13:32.223Z,2.13
2023-05-16T19:16:00.088Z,1.80
2023-05-16T19:18:28.185Z,2.10
2023-05-16T19:20:56.098Z,3.00
2023-05-16T19:23:23.887Z,2.60
2023-05-16T19:25:51.732Z,2.67
2023-05-16T19:28:19.473Z,1.70
2023-05-16T19:30:48.634Z,1.70
2023-05-16T19:33:16.585Z,1.80
2023-05-16T19:35:44.344Z,1.80
2023-05-16T19:38:12.124Z,3.10
2023-05-16T19:40:39.968Z,1.70
2023-05-16T19:43:08.851Z,1.90
2023-05-16T19:45:37.284Z,1.37
2023-05-16T19:48:07.572Z,1.83
2023-05-16T19:50:35.457Z,1.77
2023-05-16T19:53:04.115Z,2.13
2023-05-16T19:55:32.203Z,1.87
2023-05-16T19:58:00.001Z,1.87
2023-05-16T20:00:27.803Z,1.70
2023-05-16T20:02:55.701Z,1.80
2023-05-16T20:05:25.231Z,2.20
2023-05-16T20:07:54.607Z,1.80
2023-05-16T20:10:23.002Z,1.97
2023-05-16T20:12:51.410Z,2.00
2023-05-16T20:15:19.187Z,2.20
2023-05-16T20:17:47.109Z,2.10
2023-05-16T20:20:14.855Z,2.10
2023-05-16T20:22:43.995Z,2.10
2023-05-16T20:25:12.084Z,1.93
2023-05-16T20:27:40.008Z,1.90
2023-05-16T20:30:08.857Z,1.97
2023-05-16T20:32:36.699Z,2.17
2023-05-16T20:35:09.011Z,2.20
2023-05-16T20:37:36.860Z,1.70
2023-05-16T20:40:07.324Z,2.10
2023-05-16T20:42:35.146Z,2.10
2023-05-16T20:45:02.912Z,1.90
2023-05-16T20:47:30.804Z,2.33
2023-05-16T20:50:01.656Z,2.17
2023-05-16T20:52:29.419Z,2.00
2023-05-16T20:54:58.139Z,2.33
2023-05-16T20:57:30.372Z,2.23
2023-05-16T20:59:58.097Z,34.17
2023-05-16T21:02:25.899Z,2.70
2023-05-16T21:04:53.749Z,1.90
2023-05-16T21:07:21.554Z,3.03
2023-05-16T21:09:49.392Z,2.30
2023-05-16T21:12:17.132Z,2.77
2023-05-16T21:14:46.715Z,3.10
2023-05-16T21:17:14.603Z,2.43
2023-05-16T21:19:42.463Z,2.40
2023-05-16T21:22:11.284Z,2.47
2023-05-16T21:24:39.042Z,2.10
2023-05-16T21:27:06.913Z,2.40
2023-05-16T21:29:34.654Z,2.33
2023-05-16T21:32:03.826Z,2.60
2023-05-16T21:34:31.564Z,2.57
2023-05-16T21:36:59.956Z,2.17
2023-05-16T21:39:27.749Z,2.50
2023-05-16T21:41:55.843Z,2.27
2023-05-16T21:44:23.647Z,2.43
2023-05-16T21:46:51.412Z,2.53
2023-05-16T21:49:20.725Z,2.13
2023-05-16T21:51:48.488Z,2.43
2023-05-16T21:54:16.265Z,2.70
2023-05-16T21:56:44.031Z,2.70
2023-05-16T21:59:11.778Z,2.53
2023-05-16T22:01:39.545Z,2.67
2023-05-16T22:04:07.447Z,2.70
2023-05-16T22:06:36.913Z,2.70
2023-05-16T22:09:05.011Z,2.60
2023-05-16T22:11:32.849Z,2.80
2023-05-16T22:14:00.635Z,2.90
2023-05-16T22:16:28.464Z,3.10
2023-05-16T22:18:56.391Z,2.87
2023-05-16T22:21:24.290Z,2.70
2023-05-16T22:23:53.453Z,2.67
2023-05-16T22:26:21.348Z,2.70
2023-05-16T22:28:49.145Z,2.50
2023-05-16T22:31:16.985Z,3.00
2023-05-16T22:33:44.917Z,2.77
2023-05-16T22:36:12.826Z,2.93
2023-05-16T22:38:40.590Z,2.63
2023-05-16T22:41:09.686Z,2.93
2023-05-16T22:43:37.482Z,2.77
2023-05-16T22:46:05.231Z,3.33
2023-05-16T22:48:33.015Z,26.53
2023-05-16T22:51:02.084Z,3.70
2023-05-16T22:53:29.961Z,2.40
2023-05-16T22:55:58.808Z,2.90
2023-05-16T22:58:27.934Z,3.03
2023-05-16T23:00:55.726Z,2.50
2023-05-16T23:03:23.601Z,3.07
2023-05-16T23:05:51.448Z,3.00
2023-05-16T23:08:19.213Z,3.20
2023-05-16T23:10:47.430Z,2.83
2023-05-16T23:13:15.342Z,3.00
2023-05-16T23:15:44.442Z,2.73
2023-05-16T23:18:12.584Z,3.00
2023-05-16T23:20:40.495Z,2.60
2023-05-16T23:23:08.383Z,3.20
2023-05-16T23:25:36.185Z,3.10
2023-05-16T23:28:04.080Z,3.33
2023-05-16T23:30:31.937Z,3.17
2023-05-16T23:33:01.174Z,3.03
2023-05-16T23:35:29.126Z,2.77
2023-05-16T23:37:57.018Z,3.27
2023-05-16T23:40:24.755Z,3.20
2023-05-16T23:42:52.515Z,3.37
2023-05-16T23:45:20.277Z,3.37
2023-05-16T23:47:48.145Z,3.33
2023-05-16T23:50:17.877Z,3.30
2023-05-16T23:52:45.680Z,3.20
2023-05-16T23:55:13.491Z,3.53
2023-05-16T23:57:41.385Z,3.33
